sensor_id;sensor_type;location;lat;lon;timestamp;P1;durP1;ratioP1;P2;durP2;ratioP2
73675;SDS011;61975;48.660;10.164;2023-10-09T00:00:32;8.60;;;3.67;;
73675;SDS011;61975;48.660;10.164;2023-10-09T00:03:03;9.82;;;3.70;;
73675;SDS011;61975;48.660;10.164;2023-10-09T00:05:38;8.40;;;3.53;;
73675;SDS011;61975;48.660;10.164;2023-10-09T00:08:09;10.13;;;3.30;;
73675;SDS011;61975;48.660;10.164;2023-10-09T00:10:36;9.95;;;3.65;;
73675;SDS011;61975;48.660;10.164;2023-10-09T00:13:10;8.75;;;3.33;;
73675;SDS011;61975;48.660;10.164;2023-10-09T00:15:36;10.70;;;3.53;;
73675;SDS011;61975;48.660;10.164;2023-10-09T00:18:02;7.13;;;3.45;;
73675;SDS011;61975;48.660;10.164;2023-10-09T00:20:37;9.70;;;3.50;;
73675;SDS011;61975;48.660;10.164;2023-10-09T00:23:08;8.32;;;3.70;;
73675;SDS011;61975;48.660;10.164;2023-10-09T00:25:39;8.88;;;3.70;;
73675;SDS011;61975;48.660;10.164;2023-10-09T00:28:11;10.00;;;3.75;;
73675;SDS011;61975;48.660;10.164;2023-10-09T00:30:40;11.82;;;3.60;;
73675;SDS011;61975;48.660;10.164;2023-10-09T00:33:06;9.10;;;3.50;;
73675;SDS011;61975;48.660;10.164;2023-10-09T00:35:36;7.93;;;3.08;;
73675;SDS011;61975;48.660;10.164;2023-10-09T00:38:11;9.43;;;3.35;;
73675;SDS011;61975;48.660;10.164;2023-10-09T00:40:45;7.70;;;3.35;;
73675;SDS011;61975;48.660;10.164;2023-10-09T00:43:15;7.90;;;3.17;;
73675;SDS011;61975;48.660;10.164;2023-10-09T00:45:44;9.13;;;2.97;;
73675;SDS011;61975;48.660;10.164;2023-10-09T00:48:11;9.38;;;3.22;;
73675;SDS011;61975;48.660;10.164;2023-10-09T00:50:48;7.85;;;3.08;;
73675;SDS011;61975;48.660;10.164;2023-10-09T00:53:17;8.38;;;3.40;;
73675;SDS011;61975;48.660;10.164;2023-10-09T00:55:55;9.60;;;3.17;;
73675;SDS011;61975;48.660;10.164;2023-10-09T00:58:23;8.63;;;3.47;;
73675;SDS011;61975;48.660;10.164;2023-10-09T01:00:52;6.53;;;3.15;;
73675;SDS011;61975;48.660;10.164;2023-10-09T01:03:18;7.85;;;3.60;;
73675;SDS011;61975;48.660;10.164;2023-10-09T01:05:46;9.50;;;2.83;;
73675;SDS011;61975;48.660;10.164;2023-10-09T01:08:39;10.70;;;3.15;;
73675;SDS011;61975;48.660;10.164;2023-10-09T01:11:06;7.17;;;3.30;;
73675;SDS011;61975;48.660;10.164;2023-10-09T01:13:35;8.88;;;3.55;;
73675;SDS011;61975;48.660;10.164;2023-10-09T01:16:14;10.70;;;3.17;;
73675;SDS011;61975;48.660;10.164;2023-10-09T01:21:11;9.70;;;3.47;;
73675;SDS011;61975;48.660;10.164;2023-10-09T01:23:46;5.30;;;2.60;;
73675;SDS011;61975;48.660;10.164;2023-10-09T01:26:24;9.85;;;3.38;;
73675;SDS011;61975;48.660;10.164;2023-10-09T01:28:50;10.07;;;3.67;;
73675;SDS011;61975;48.660;10.164;2023-10-09T01:31:16;8.87;;;3.27;;
73675;SDS011;61975;48.660;10.164;2023-10-09T01:33:41;9.73;;;3.43;;
73675;SDS011;61975;48.660;10.164;2023-10-09T01:36:07;9.43;;;3.10;;
73675;SDS011;61975;48.660;10.164;2023-10-09T01:38:34;7.72;;;2.92;;
73675;SDS011;61975;48.660;10.164;2023-10-09T01:41:12;7.33;;;2.90;;
73675;SDS011;61975;48.660;10.164;2023-10-09T01:43:40;9.27;;;3.13;;
73675;SDS011;61975;48.660;10.164;2023-10-09T01:46:09;9.65;;;3.30;;
73675;SDS011;61975;48.660;10.164;2023-10-09T01:48:36;7.68;;;3.33;;
73675;SDS011;61975;48.660;10.164;2023-10-09T01:51:04;9.65;;;3.47;;
73675;SDS011;61975;48.660;10.164;2023-10-09T01:53:30;7.60;;;3.55;;
73675;SDS011;61975;48.660;10.164;2023-10-09T01:55:56;13.57;;;4.17;;
73675;SDS011;61975;48.660;10.164;2023-10-09T01:58:24;8.48;;;3.45;;
73675;SDS011;61975;48.660;10.164;2023-10-09T02:00:57;10.55;;;3.60;;
73675;SDS011;61975;48.660;10.164;2023-10-09T02:03:26;10.18;;;3.50;;
73675;SDS011;61975;48.660;10.164;2023-10-09T02:05:54;10.40;;;3.80;;
73675;SDS011;61975;48.660;10.164;2023-10-09T02:08:26;8.32;;;3.20;;
73675;SDS011;61975;48.660;10.164;2023-10-09T02:10:55;10.73;;;3.20;;
73675;SDS011;61975;48.660;10.164;2023-10-09T02:13:21;8.20;;;3.17;;
73675;SDS011;61975;48.660;10.164;2023-10-09T02:15:55;8.57;;;3.78;;
73675;SDS011;61975;48.660;10.164;2023-10-09T02:18:23;7.80;;;3.10;;
73675;SDS011;61975;48.660;10.164;2023-10-09T02:20:53;9.50;;;3.47;;
73675;SDS011;61975;48.660;10.164;2023-10-09T02:23:37;8.43;;;2.90;;
73675;SDS011;61975;48.660;10.164;2023-10-09T02:26:05;11.23;;;3.63;;
73675;SDS011;61975;48.660;10.164;2023-10-09T02:29:11;8.93;;;3.17;;
73675;SDS011;61975;48.660;10.164;2023-10-09T02:31:39;9.02;;;3.28;;
73675;SDS011;61975;48.660;10.164;2023-10-09T02:34:05;7.50;;;3.50;;
73675;SDS011;61975;48.660;10.164;2023-10-09T02:36:33;9.82;;;3.17;;
73675;SDS011;61975;48.660;10.164;2023-10-09T02:39:11;9.05;;;3.75;;
73675;SDS011;61975;48.660;10.164;2023-10-09T02:41:52;10.45;;;2.83;;
73675;SDS011;61975;48.660;10.164;2023-10-09T02:44:25;10.20;;;3.40;;
73675;SDS011;61975;48.660;10.164;2023-10-09T02:46:51;11.10;;;3.33;;
73675;SDS011;61975;48.660;10.164;2023-10-09T02:49:22;6.82;;;2.92;;
73675;SDS011;61975;48.660;10.164;2023-10-09T02:51:48;8.70;;;3.28;;
73675;SDS011;61975;48.660;10.164;2023-10-09T02:54:18;10.52;;;3.42;;
73675;SDS011;61975;48.660;10.164;2023-10-09T02:56:50;8.33;;;3.67;;
73675;SDS011;61975;48.660;10.164;2023-10-09T02:59:31;7.80;;;3.42;;
73675;SDS011;61975;48.660;10.164;2023-10-09T03:01:56;7.20;;;3.20;;
73675;SDS011;61975;48.660;10.164;2023-10-09T03:04:24;9.43;;;2.90;;
73675;SDS011;61975;48.660;10.164;2023-10-09T03:06:52;7.75;;;3.10;;
73675;SDS011;61975;48.660;10.164;2023-10-09T03:09:22;8.05;;;3.17;;
73675;SDS011;61975;48.660;10.164;2023-10-09T03:11:55;8.82;;;3.22;;
73675;SDS011;61975;48.660;10.164;2023-10-09T03:14:27;8.47;;;3.00;;
73675;SDS011;61975;48.660;10.164;2023-10-09T03:16:56;7.47;;;3.28;;
73675;SDS011;61975;48.660;10.164;2023-10-09T03:19:26;8.73;;;3.38;;
73675;SDS011;61975;48.660;10.164;2023-10-09T03:21:53;10.68;;;3.72;;
73675;SDS011;61975;48.660;10.164;2023-10-09T03:24:19;7.77;;;3.20;;
73675;SDS011;61975;48.660;10.164;2023-10-09T03:26:47;7.57;;;2.85;;
73675;SDS011;61975;48.660;10.164;2023-10-09T03:29:13;8.98;;;3.35;;
73675;SDS011;61975;48.660;10.164;2023-10-09T03:31:39;7.97;;;2.87;;
73675;SDS011;61975;48.660;10.164;2023-10-09T03:34:08;8.07;;;2.97;;
73675;SDS011;61975;48.660;10.164;2023-10-09T03:36:35;7.35;;;3.00;;
73675;SDS011;61975;48.660;10.164;2023-10-09T03:39:04;9.02;;;3.47;;
73675;SDS011;61975;48.660;10.164;2023-10-09T03:41:43;8.32;;;3.10;;
73675;SDS011;61975;48.660;10.164;2023-10-09T03:44:11;8.27;;;3.20;;
73675;SDS011;61975;48.660;10.164;2023-10-09T03:46:38;10.50;;;3.50;;
73675;SDS011;61975;48.660;10.164;2023-10-09T03:49:04;8.73;;;3.60;;
73675;SDS011;61975;48.660;10.164;2023-10-09T03:51:35;9.48;;;3.53;;
73675;SDS011;61975;48.660;10.164;2023-10-09T03:54:02;11.30;;;3.42;;
73675;SDS011;61975;48.660;10.164;2023-10-09T03:56:33;9.05;;;3.03;;
73675;SDS011;61975;48.660;10.164;2023-10-09T03:58:59;6.60;;;3.17;;
73675;SDS011;61975;48.660;10.164;2023-10-09T04:01:26;8.90;;;3.00;;
73675;SDS011;61975;48.660;10.164;2023-10-09T04:06:23;8.02;;;3.13;;
73675;SDS011;61975;48.660;10.164;2023-10-09T04:08:53;8.77;;;3.30;;
73675;SDS011;61975;48.660;10.164;2023-10-09T04:11:20;8.38;;;3.22;;
73675;SDS011;61975;48.660;10.164;2023-10-09T04:13:48;8.63;;;3.33;;
73675;SDS011;61975;48.660;10.164;2023-10-09T04:16:25;9.25;;;3.17;;
73675;SDS011;61975;48.660;10.164;2023-10-09T04:18:59;8.73;;;3.40;;
73675;SDS011;61975;48.660;10.164;2023-10-09T04:21:31;10.50;;;4.17;;
73675;SDS011;61975;48.660;10.164;2023-10-09T04:24:03;11.55;;;5.15;;
73675;SDS011;61975;48.660;10.164;2023-10-09T04:26:39;10.10;;;4.65;;
73675;SDS011;61975;48.660;10.164;2023-10-09T04:29:12;12.88;;;5.13;;
73675;SDS011;61975;48.660;10.164;2023-10-09T04:31:51;12.02;;;5.30;;
73675;SDS011;61975;48.660;10.164;2023-10-09T04:34:26;14.13;;;4.97;;
73675;SDS011;61975;48.660;10.164;2023-10-09T04:37:01;11.73;;;5.10;;
73675;SDS011;61975;48.660;10.164;2023-10-09T04:39:44;11.23;;;4.70;;
73675;SDS011;61975;48.660;10.164;2023-10-09T04:42:13;11.30;;;4.80;;
73675;SDS011;61975;48.660;10.164;2023-10-09T04:45:01;11.02;;;4.45;;
73675;SDS011;61975;48.660;10.164;2023-10-09T04:47:32;9.73;;;3.83;;
73675;SDS011;61975;48.660;10.164;2023-10-09T04:50:18;8.93;;;4.28;;
73675;SDS011;61975;48.660;10.164;2023-10-09T04:52:44;12.17;;;4.20;;
73675;SDS011;61975;48.660;10.164;2023-10-09T04:55:09;10.07;;;4.03;;
73675;SDS011;61975;48.660;10.164;2023-10-09T04:57:44;10.77;;;3.90;;
73675;SDS011;61975;48.660;10.164;2023-10-09T05:00:12;8.50;;;3.90;;
73675;SDS011;61975;48.660;10.164;2023-10-09T05:02:48;10.45;;;3.95;;
73675;SDS011;61975;48.660;10.164;2023-10-09T05:05:24;9.13;;;4.20;;
73675;SDS011;61975;48.660;10.164;2023-10-09T05:08:09;9.48;;;4.15;;
73675;SDS011;61975;48.660;10.164;2023-10-09T05:11:00;9.38;;;3.97;;
73675;SDS011;61975;48.660;10.164;2023-10-09T05:13:27;10.60;;;4.13;;
73675;SDS011;61975;48.660;10.164;2023-10-09T05:16:05;9.27;;;4.20;;
73675;SDS011;61975;48.660;10.164;2023-10-09T05:18:30;9.35;;;3.72;;
73675;SDS011;61975;48.660;10.164;2023-10-09T05:21:07;9.70;;;4.15;;
73675;SDS011;61975;48.660;10.164;2023-10-09T05:23:48;9.40;;;3.63;;
73675;SDS011;61975;48.660;10.164;2023-10-09T05:26:32;10.63;;;3.63;;
73675;SDS011;61975;48.660;10.164;2023-10-09T05:29:24;8.75;;;3.85;;
73675;SDS011;61975;48.660;10.164;2023-10-09T05:31:53;9.13;;;4.20;;
73675;SDS011;61975;48.660;10.164;2023-10-09T05:34:25;6.97;;;3.47;;
73675;SDS011;61975;48.660;10.164;2023-10-09T05:37:02;9.02;;;3.75;;
73675;SDS011;61975;48.660;10.164;2023-10-09T05:39:50;10.23;;;4.20;;
73675;SDS011;61975;48.660;10.164;2023-10-09T05:42:26;12.48;;;4.10;;
73675;SDS011;61975;48.660;10.164;2023-10-09T05:45:14;12.80;;;4.10;;
73675;SDS011;61975;48.660;10.164;2023-10-09T05:47:56;10.02;;;3.92;;
73675;SDS011;61975;48.660;10.164;2023-10-09T05:50:25;9.87;;;3.70;;
73675;SDS011;61975;48.660;10.164;2023-10-09T05:52:52;11.10;;;3.60;;
73675;SDS011;61975;48.660;10.164;2023-10-09T05:55:19;12.10;;;4.13;;
73675;SDS011;61975;48.660;10.164;2023-10-09T05:58:03;10.50;;;3.93;;
73675;SDS011;61975;48.660;10.164;2023-10-09T06:00:34;11.60;;;4.22;;
73675;SDS011;61975;48.660;10.164;2023-10-09T06:03:19;12.98;;;3.83;;
73675;SDS011;61975;48.660;10.164;2023-10-09T06:05:45;9.67;;;4.00;;
73675;SDS011;61975;48.660;10.164;2023-10-09T06:08:23;11.52;;;3.95;;
73675;SDS011;61975;48.660;10.164;2023-10-09T06:11:11;9.48;;;3.72;;
73675;SDS011;61975;48.660;10.164;2023-10-09T06:13:56;9.48;;;3.80;;
73675;SDS011;61975;48.660;10.164;2023-10-09T06:16:29;10.18;;;4.25;;
73675;SDS011;61975;48.660;10.164;2023-10-09T06:19:07;10.18;;;3.70;;
73675;SDS011;61975;48.660;10.164;2023-10-09T06:21:36;15.68;;;3.63;;
73675;SDS011;61975;48.660;10.164;2023-10-09T06:24:08;15.38;;;3.92;;
73675;SDS011;61975;48.660;10.164;2023-10-09T06:26:39;11.88;;;3.92;;
73675;SDS011;61975;48.660;10.164;2023-10-09T06:29:06;11.15;;;3.95;;
73675;SDS011;61975;48.660;10.164;2023-10-09T06:31:41;11.98;;;4.28;;
73675;SDS011;61975;48.660;10.164;2023-10-09T06:34:41;12.90;;;4.90;;
73675;SDS011;61975;48.660;10.164;2023-10-09T06:37:10;11.95;;;4.38;;
73675;SDS011;61975;48.660;10.164;2023-10-09T06:39:59;12.77;;;4.10;;
73675;SDS011;61975;48.660;10.164;2023-10-09T06:42:44;14.88;;;3.50;;
73675;SDS011;61975;48.660;10.164;2023-10-09T06:45:16;11.33;;;3.50;;
73675;SDS011;61975;48.660;10.164;2023-10-09T06:47:50;12.52;;;3.20;;
73675;SDS011;61975;48.660;10.164;2023-10-09T06:50:20;11.07;;;3.55;;
73675;SDS011;61975;48.660;10.164;2023-10-09T06:52:46;10.83;;;3.17;;
73675;SDS011;61975;48.660;10.164;2023-10-09T06:55:43;14.05;;;3.80;;
73675;SDS011;61975;48.660;10.164;2023-10-09T07:00:51;14.23;;;3.83;;
73675;SDS011;61975;48.660;10.164;2023-10-09T07:03:38;10.13;;;3.25;;
73675;SDS011;61975;48.660;10.164;2023-10-09T07:06:17;16.98;;;4.03;;
73675;SDS011;61975;48.660;10.164;2023-10-09T07:11:33;14.88;;;4.00;;
73675;SDS011;61975;48.660;10.164;2023-10-09T07:14:26;14.95;;;4.00;;
73675;SDS011;61975;48.660;10.164;2023-10-09T07:17:03;10.98;;;3.53;;
73675;SDS011;61975;48.660;10.164;2023-10-09T07:19:50;18.45;;;3.70;;
73675;SDS011;61975;48.660;10.164;2023-10-09T07:22:16;11.20;;;3.42;;
73675;SDS011;61975;48.660;10.164;2023-10-09T07:24:45;16.85;;;4.70;;
73675;SDS011;61975;48.660;10.164;2023-10-09T07:27:31;14.00;;;4.10;;
73675;SDS011;61975;48.660;10.164;2023-10-09T07:30:17;16.33;;;3.87;;
73675;SDS011;61975;48.660;10.164;2023-10-09T07:32:56;12.27;;;4.13;;
73675;SDS011;61975;48.660;10.164;2023-10-09T07:35:30;11.88;;;3.80;;
73675;SDS011;61975;48.660;10.164;2023-10-09T07:38:08;15.73;;;3.83;;
73675;SDS011;61975;48.660;10.164;2023-10-09T07:41:00;12.52;;;3.83;;
73675;SDS011;61975;48.660;10.164;2023-10-09T07:43:33;13.33;;;3.87;;
73675;SDS011;61975;48.660;10.164;2023-10-09T07:46:16;13.48;;;3.92;;
73675;SDS011;61975;48.660;10.164;2023-10-09T07:51:33;13.35;;;3.47;;
73675;SDS011;61975;48.660;10.164;2023-10-09T07:54:00;12.77;;;4.03;;
73675;SDS011;61975;48.660;10.164;2023-10-09T07:56:40;15.03;;;3.40;;
73675;SDS011;61975;48.660;10.164;2023-10-09T07:59:09;13.95;;;3.60;;
73675;SDS011;61975;48.660;10.164;2023-10-09T08:01:46;14.65;;;3.42;;
73675;SDS011;61975;48.660;10.164;2023-10-09T08:09:32;16.00;;;2.97;;
73675;SDS011;61975;48.660;10.164;2023-10-09T08:12:20;13.52;;;2.90;;
73675;SDS011;61975;48.660;10.164;2023-10-09T08:15:22;13.60;;;2.95;;
73675;SDS011;61975;48.660;10.164;2023-10-09T08:17:52;13.50;;;3.50;;
73675;SDS011;61975;48.660;10.164;2023-10-09T08:20:24;13.68;;;2.92;;
73675;SDS011;61975;48.660;10.164;2023-10-09T08:23:01;13.17;;;2.87;;
73675;SDS011;61975;48.660;10.164;2023-10-09T08:25:30;10.63;;;2.90;;
73675;SDS011;61975;48.660;10.164;2023-10-09T08:27:59;14.73;;;3.38;;
73675;SDS011;61975;48.660;10.164;2023-10-09T08:30:44;13.23;;;3.72;;
73675;SDS011;61975;48.660;10.164;2023-10-09T08:33:19;13.55;;;2.88;;
73675;SDS011;61975;48.660;10.164;2023-10-09T08:35:50;14.97;;;3.20;;
73675;SDS011;61975;48.660;10.164;2023-10-09T08:38:16;13.60;;;3.58;;
73675;SDS011;61975;48.660;10.164;2023-10-09T08:40:48;10.60;;;3.28;;
73675;SDS011;61975;48.660;10.164;2023-10-09T08:43:19;14.48;;;3.30;;
73675;SDS011;61975;48.660;10.164;2023-10-09T08:46:03;18.17;;;4.00;;
73675;SDS011;61975;48.660;10.164;2023-10-09T08:48:30;10.03;;;3.90;;
73675;SDS011;61975;48.660;10.164;2023-10-09T08:50:55;17.10;;;5.28;;
73675;SDS011;61975;48.660;10.164;2023-10-09T08:53:22;14.93;;;3.07;;
73675;SDS011;61975;48.660;10.164;2023-10-09T08:55:55;15.23;;;4.03;;
73675;SDS011;61975;48.660;10.164;2023-10-09T08:58:21;15.47;;;4.53;;
73675;SDS011;61975;48.660;10.164;2023-10-09T09:01:02;15.93;;;4.80;;
73675;SDS011;61975;48.660;10.164;2023-10-09T09:03:37;16.52;;;4.90;;
73675;SDS011;61975;48.660;10.164;2023-10-09T09:06:04;16.88;;;4.32;;
73675;SDS011;61975;48.660;10.164;2023-10-09T09:08:31;17.10;;;5.03;;
73675;SDS011;61975;48.660;10.164;2023-10-09T09:13:48;11.68;;;3.33;;
73675;SDS011;61975;48.660;10.164;2023-10-09T09:16:30;12.63;;;4.00;;
73675;SDS011;61975;48.660;10.164;2023-10-09T09:21:29;14.63;;;3.80;;
73675;SDS011;61975;48.660;10.164;2023-10-09T09:24:02;17.17;;;3.78;;
73675;SDS011;61975;48.660;10.164;2023-10-09T09:29:09;15.02;;;2.92;;
73675;SDS011;61975;48.660;10.164;2023-10-09T09:31:35;17.35;;;3.10;;
73675;SDS011;61975;48.660;10.164;2023-10-09T09:34:07;12.93;;;3.13;;
73675;SDS011;61975;48.660;10.164;2023-10-09T09:36:54;18.23;;;3.65;;
73675;SDS011;61975;48.660;10.164;2023-10-09T09:39:30;16.73;;;3.33;;
73675;SDS011;61975;48.660;10.164;2023-10-09T09:41:57;21.30;;;3.38;;
73675;SDS011;61975;48.660;10.164;2023-10-09T09:44:30;15.27;;;2.45;;
73675;SDS011;61975;48.660;10.164;2023-10-09T09:47:00;18.57;;;2.50;;
73675;SDS011;61975;48.660;10.164;2023-10-09T09:49:27;18.08;;;2.70;;
73675;SDS011;61975;48.660;10.164;2023-10-09T09:52:05;13.32;;;2.40;;
73675;SDS011;61975;48.660;10.164;2023-10-09T09:54:35;11.60;;;2.33;;
73675;SDS011;61975;48.660;10.164;2023-10-09T09:57:03;17.25;;;2.80;;
73675;SDS011;61975;48.660;10.164;2023-10-09T09:59:34;15.57;;;2.57;;
73675;SDS011;61975;48.660;10.164;2023-10-09T10:02:05;14.52;;;2.47;;
73675;SDS011;61975;48.660;10.164;2023-10-09T10:04:36;15.35;;;2.38;;
73675;SDS011;61975;48.660;10.164;2023-10-09T10:07:04;13.35;;;2.17;;
73675;SDS011;61975;48.660;10.164;2023-10-09T10:09:41;15.18;;;2.35;;
73675;SDS011;61975;48.660;10.164;2023-10-09T10:12:11;12.80;;;2.20;;
73675;SDS011;61975;48.660;10.164;2023-10-09T10:17:30;14.25;;;2.70;;
73675;SDS011;61975;48.660;10.164;2023-10-09T10:22:25;15.90;;;2.50;;
73675;SDS011;61975;48.660;10.164;2023-10-09T10:24:55;11.70;;;2.42;;
73675;SDS011;61975;48.660;10.164;2023-10-09T10:27:25;14.90;;;2.33;;
73675;SDS011;61975;48.660;10.164;2023-10-09T10:30:40;15.20;;;2.42;;
73675;SDS011;61975;48.660;10.164;2023-10-09T10:32:56;11.20;;;2.33;;
73675;SDS011;61975;48.660;10.164;2023-10-09T10:35:34;11.87;;;2.37;;
73675;SDS011;61975;48.660;10.164;2023-10-09T10:38:23;12.55;;;2.53;;
73675;SDS011;61975;48.660;10.164;2023-10-09T10:40:48;9.60;;;2.05;;
73675;SDS011;61975;48.660;10.164;2023-10-09T10:43:22;12.63;;;2.10;;
73675;SDS011;61975;48.660;10.164;2023-10-09T10:46:03;12.32;;;2.10;;
73675;SDS011;61975;48.660;10.164;2023-10-09T10:48:38;11.70;;;1.97;;
73675;SDS011;61975;48.660;10.164;2023-10-09T10:51:04;13.60;;;2.40;;
73675;SDS011;61975;48.660;10.164;2023-10-09T10:53:30;13.17;;;1.97;;
73675;SDS011;61975;48.660;10.164;2023-10-09T10:56:12;11.27;;;2.40;;
73675;SDS011;61975;48.660;10.164;2023-10-09T10:58:38;14.07;;;2.42;;
73675;SDS011;61975;48.660;10.164;2023-10-09T11:01:18;11.77;;;2.03;;
73675;SDS011;61975;48.660;10.164;2023-10-09T11:03:43;12.63;;;1.90;;
73675;SDS011;61975;48.660;10.164;2023-10-09T11:06:28;11.27;;;2.30;;
73675;SDS011;61975;48.660;10.164;2023-10-09T11:09:02;15.60;;;2.17;;
73675;SDS011;61975;48.660;10.164;2023-10-09T11:11:35;16.13;;;2.57;;
73675;SDS011;61975;48.660;10.164;2023-10-09T11:14:12;14.15;;;2.80;;
73675;SDS011;61975;48.660;10.164;2023-10-09T11:16:42;11.18;;;2.38;;
73675;SDS011;61975;48.660;10.164;2023-10-09T11:19:12;11.68;;;2.33;;
73675;SDS011;61975;48.660;10.164;2023-10-09T11:21:53;16.02;;;2.75;;
73675;SDS011;61975;48.660;10.164;2023-10-09T11:24:32;12.33;;;2.17;;
73675;SDS011;61975;48.660;10.164;2023-10-09T11:26:59;10.82;;;2.13;;
73675;SDS011;61975;48.660;10.164;2023-10-09T11:29:32;10.55;;;2.22;;
73675;SDS011;61975;48.660;10.164;2023-10-09T11:32:07;14.70;;;2.33;;
73675;SDS011;61975;48.660;10.164;2023-10-09T11:34:43;12.45;;;2.20;;
73675;SDS011;61975;48.660;10.164;2023-10-09T11:37:24;13.03;;;2.60;;
73675;SDS011;61975;48.660;10.164;2023-10-09T11:39:53;11.68;;;2.30;;
73675;SDS011;61975;48.660;10.164;2023-10-09T11:42:19;13.13;;;2.30;;
73675;SDS011;61975;48.660;10.164;2023-10-09T11:45:06;9.75;;;2.38;;
73675;SDS011;61975;48.660;10.164;2023-10-09T11:47:47;12.68;;;2.20;;
73675;SDS011;61975;48.660;10.164;2023-10-09T11:53:19;13.33;;;2.40;;
73675;SDS011;61975;48.660;10.164;2023-10-09T11:55:58;11.05;;;2.10;;
73675;SDS011;61975;48.660;10.164;2023-10-09T11:58:24;10.75;;;2.67;;
73675;SDS011;61975;48.660;10.164;2023-10-09T12:00:51;10.65;;;2.10;;
73675;SDS011;61975;48.660;10.164;2023-10-09T12:03:23;10.88;;;2.25;;
73675;SDS011;61975;48.660;10.164;2023-10-09T12:05:58;11.80;;;2.37;;
73675;SDS011;61975;48.660;10.164;2023-10-09T12:08:32;12.65;;;2.50;;
73675;SDS011;61975;48.660;10.164;2023-10-09T12:10:58;15.02;;;3.33;;
73675;SDS011;61975;48.660;10.164;2023-10-09T12:13:27;7.70;;;2.17;;
73675;SDS011;61975;48.660;10.164;2023-10-09T12:15:54;13.15;;;2.38;;
73675;SDS011;61975;48.660;10.164;2023-10-09T12:18:20;13.87;;;2.53;;
73675;SDS011;61975;48.660;10.164;2023-10-09T12:20:46;13.13;;;2.42;;
73675;SDS011;61975;48.660;10.164;2023-10-09T12:23:16;9.33;;;2.00;;
73675;SDS011;61975;48.660;10.164;2023-10-09T12:25:45;11.52;;;1.92;;
73675;SDS011;61975;48.660;10.164;2023-10-09T12:28:13;11.80;;;2.10;;
73675;SDS011;61975;48.660;10.164;2023-10-09T12:30:39;12.15;;;2.78;;
73675;SDS011;61975;48.660;10.164;2023-10-09T12:33:08;9.07;;;2.00;;
73675;SDS011;61975;48.660;10.164;2023-10-09T12:35:37;12.68;;;2.15;;
73675;SDS011;61975;48.660;10.164;2023-10-09T12:38:03;11.05;;;2.63;;
73675;SDS011;61975;48.660;10.164;2023-10-09T12:40:33;9.40;;;2.70;;
73675;SDS011;61975;48.660;10.164;2023-10-09T12:42:59;8.47;;;2.53;;
73675;SDS011;61975;48.660;10.164;2023-10-09T12:45:25;11.98;;;2.10;;
73675;SDS011;61975;48.660;10.164;2023-10-09T12:47:54;15.07;;;2.60;;
73675;SDS011;61975;48.660;10.164;2023-10-09T12:50:27;8.88;;;2.70;;
73675;SDS011;61975;48.660;10.164;2023-10-09T12:52:56;11.73;;;2.50;;
73675;SDS011;61975;48.660;10.164;2023-10-09T12:55:27;8.98;;;2.17;;
73675;SDS011;61975;48.660;10.164;2023-10-09T12:57:57;11.05;;;2.40;;
73675;SDS011;61975;48.660;10.164;2023-10-09T13:00:26;10.20;;;2.43;;
73675;SDS011;61975;48.660;10.164;2023-10-09T13:02:52;9.73;;;2.47;;
73675;SDS011;61975;48.660;10.164;2023-10-09T13:05:17;13.97;;;2.80;;
73675;SDS011;61975;48.660;10.164;2023-10-09T13:07:51;10.85;;;2.40;;
73675;SDS011;61975;48.660;10.164;2023-10-09T13:10:18;9.88;;;2.60;;
73675;SDS011;61975;48.660;10.164;2023-10-09T13:12:44;10.75;;;2.45;;
73675;SDS011;61975;48.660;10.164;2023-10-09T13:15:10;8.17;;;2.17;;
73675;SDS011;61975;48.660;10.164;2023-10-09T13:17:39;9.52;;;2.72;;
73675;SDS011;61975;48.660;10.164;2023-10-09T13:20:05;10.88;;;2.47;;
73675;SDS011;61975;48.660;10.164;2023-10-09T13:22:43;9.80;;;2.47;;
73675;SDS011;61975;48.660;10.164;2023-10-09T13:25:11;10.98;;;2.53;;
73675;SDS011;61975;48.660;10.164;2023-10-09T13:27:44;9.13;;;2.35;;
73675;SDS011;61975;48.660;10.164;2023-10-09T13:30:16;11.88;;;2.70;;
73675;SDS011;61975;48.660;10.164;2023-10-09T13:32:48;15.95;;;2.67;;
73675;SDS011;61975;48.660;10.164;2023-10-09T13:35:18;12.50;;;2.57;;
73675;SDS011;61975;48.660;10.164;2023-10-09T13:37:44;10.15;;;2.47;;
73675;SDS011;61975;48.660;10.164;2023-10-09T13:40:19;13.32;;;2.40;;
73675;SDS011;61975;48.660;10.164;2023-10-09T13:42:56;10.73;;;2.60;;
73675;SDS011;61975;48.660;10.164;2023-10-09T13:45:27;13.07;;;2.65;;
73675;SDS011;61975;48.660;10.164;2023-10-09T13:47:56;12.97;;;2.50;;
73675;SDS011;61975;48.660;10.164;2023-10-09T13:50:25;10.95;;;2.55;;
73675;SDS011;61975;48.660;10.164;2023-10-09T13:52:57;13.60;;;2.40;;
73675;SDS011;61975;48.660;10.164;2023-10-09T13:55:22;12.40;;;2.20;;
73675;SDS011;61975;48.660;10.164;2023-10-09T13:57:49;11.40;;;2.53;;
73675;SDS011;61975;48.660;10.164;2023-10-09T14:00:14;16.10;;;3.07;;
73675;SDS011;61975;48.660;10.164;2023-10-09T14:02:57;16.20;;;3.42;;
73675;SDS011;61975;48.660;10.164;2023-10-09T14:05:26;9.30;;;2.92;;
73675;SDS011;61975;48.660;10.164;2023-10-09T14:07:54;13.80;;;2.78;;
73675;SDS011;61975;48.660;10.164;2023-10-09T14:10:25;10.95;;;2.75;;
73675;SDS011;61975;48.660;10.164;2023-10-09T14:12:55;11.77;;;2.43;;
73675;SDS011;61975;48.660;10.164;2023-10-09T14:15:21;9.60;;;2.33;;
73675;SDS011;61975;48.660;10.164;2023-10-09T14:17:48;13.73;;;2.83;;
73675;SDS011;61975;48.660;10.164;2023-10-09T14:20:20;10.70;;;2.40;;
73675;SDS011;61975;48.660;10.164;2023-10-09T14:22:56;10.30;;;2.60;;
73675;SDS011;61975;48.660;10.164;2023-10-09T14:25:34;12.03;;;2.90;;
73675;SDS011;61975;48.660;10.164;2023-10-09T14:28:07;11.60;;;2.80;;
73675;SDS011;61975;48.660;10.164;2023-10-09T14:30:34;10.55;;;2.45;;
73675;SDS011;61975;48.660;10.164;2023-10-09T14:33:07;13.70;;;3.85;;
73675;SDS011;61975;48.660;10.164;2023-10-09T14:35:37;10.85;;;2.60;;
73675;SDS011;61975;48.660;10.164;2023-10-09T14:38:07;13.10;;;3.27;;
73675;SDS011;61975;48.660;10.164;2023-10-09T14:40:44;11.85;;;3.25;;
73675;SDS011;61975;48.660;10.164;2023-10-09T14:43:10;16.05;;;4.53;;
73675;SDS011;61975;48.660;10.164;2023-10-09T14:45:47;12.10;;;2.90;;
73675;SDS011;61975;48.660;10.164;2023-10-09T14:48:18;11.88;;;3.13;;
73675;SDS011;61975;48.660;10.164;2023-10-09T14:50:51;11.57;;;3.20;;
73675;SDS011;61975;48.660;10.164;2023-10-09T14:53:22;12.55;;;2.58;;
73675;SDS011;61975;48.660;10.164;2023-10-09T14:55:55;13.10;;;2.90;;
73675;SDS011;61975;48.660;10.164;2023-10-09T14:58:26;10.48;;;3.00;;
73675;SDS011;61975;48.660;10.164;2023-10-09T15:00:55;12.80;;;3.20;;
73675;SDS011;61975;48.660;10.164;2023-10-09T15:03:21;12.50;;;3.37;;
73675;SDS011;61975;48.660;10.164;2023-10-09T15:05:47;12.55;;;2.78;;
73675;SDS011;61975;48.660;10.164;2023-10-09T15:08:12;8.90;;;2.57;;
73675;SDS011;61975;48.660;10.164;2023-10-09T15:10:48;10.80;;;2.72;;
73675;SDS011;61975;48.660;10.164;2023-10-09T15:13:20;10.18;;;2.80;;
73675;SDS011;61975;48.660;10.164;2023-10-09T15:15:52;12.97;;;3.07;;
73675;SDS011;61975;48.660;10.164;2023-10-09T15:18:19;15.27;;;3.35;;
73675;SDS011;61975;48.660;10.164;2023-10-09T15:20:47;16.40;;;2.80;;
73675;SDS011;61975;48.660;10.164;2023-10-09T15:23:13;12.05;;;2.90;;
73675;SDS011;61975;48.660;10.164;2023-10-09T15:25:38;10.33;;;2.80;;
73675;SDS011;61975;48.660;10.164;2023-10-09T15:28:10;11.15;;;3.00;;
73675;SDS011;61975;48.660;10.164;2023-10-09T15:30:36;14.02;;;3.38;;